createdAt,value
2019-01-09T02:04:53.052Z,1.20
2019-01-09T02:21:14.578Z,1.90
2019-01-09T03:55:40.858Z,2.00
2019-01-09T04:40:08.307Z,1.50
2019-01-09T04:45:05.791Z,2.00
2019-01-09T04:50:02.383Z,1.80
2019-01-09T04:54:59.330Z,1.75
2019-01-09T04:57:28.005Z,1.50
2019-01-09T04:59:56.771Z,1.80
2019-01-09T05:07:23.378Z,1.50
2019-01-09T05:09:53.683Z,1.60
2019-01-09T05:12:22.515Z,1.85
2019-01-09T05:17:19.679Z,2.00
2019-01-09T05:19:48.568Z,1.30
2019-01-09T05:22:17.518Z,1.90
2019-01-09T05:24:46.802Z,1.80
2019-01-09T05:27:15.835Z,1.33
2019-01-09T05:29:44.502Z,2.00
2019-01-09T05:32:13.275Z,1.75
2019-01-09T05:34:42.012Z,1.80
2019-01-09T05:37:10.614Z,1.70
2019-01-09T05:39:40.768Z,1.65
2019-01-09T05:42:10.060Z,1.80
2019-01-09T05:44:38.989Z,1.65
2019-01-09T05:47:07.677Z,1.85
2019-01-09T05:49:36.309Z,1.70
2019-01-09T05:52:05.226Z,1.95
2019-01-09T05:54:34.390Z,2.00
2019-01-09T05:57:03.164Z,2.50
2019-01-09T06:02:01.121Z,1.50
2019-01-09T06:04:30.219Z,2.17
2019-01-09T06:06:58.910Z,2.30
2019-01-09T06:09:27.796Z,2.20
2019-01-09T06:11:58.066Z,2.60
2019-01-09T06:14:28.020Z,3.17
2019-01-09T06:16:56.761Z,2.50
2019-01-09T06:19:27.061Z,2.60
2019-01-09T06:21:55.761Z,3.90
2019-01-09T06:24:24.796Z,4.40
2019-01-09T06:26:53.380Z,3.77
2019-01-09T06:29:22.157Z,3.73
2019-01-09T06:31:50.844Z,3.70
2019-01-09T06:34:19.628Z,6.05
2019-01-09T06:36:49.599Z,5.80
2019-01-09T06:39:18.255Z,5.40
2019-01-09T06:41:47.045Z,5.70
2019-01-09T06:44:15.751Z,4.20
2019-01-09T06:46:44.480Z,7.07
2019-01-09T06:49:15.079Z,5.60
2019-01-09T06:51:43.842Z,5.30
2019-01-09T06:54:13.250Z,6.40
2019-01-09T06:56:41.901Z,5.60
2019-01-09T06:59:10.579Z,5.30
2019-01-09T07:01:39.288Z,6.20
2019-01-09T07:04:08.001Z,4.20
2019-01-09T07:06:36.594Z,4.60
2019-01-09T07:09:05.990Z,3.90
2019-01-09T07:11:34.751Z,4.50
2019-01-09T07:14:03.746Z,6.05
2019-01-09T07:16:33.613Z,7.40
2019-01-09T07:19:02.281Z,7.75
2019-01-09T07:21:30.956Z,7.25
2019-01-09T07:53:42.225Z,6.00
2019-01-09T08:30:51.571Z,3.80
2019-01-09T09:15:27.691Z,2.60
2019-01-09T09:17:56.547Z,3.00
2019-01-09T09:25:22.694Z,3.60
2019-01-09T09:30:19.790Z,4.00
2019-01-09T09:40:17.222Z,5.00
2019-01-09T09:52:41.772Z,5.50
2019-01-09T09:55:12.989Z,4.80
2019-01-09T10:15:00.769Z,5.00
2019-01-09T10:24:54.079Z,4.40
2019-01-09T10:32:19.108Z,3.80
2019-01-09T10:44:41.153Z,3.60
2019-01-09T13:37:38.587Z,1.70
2019-01-09T14:51:56.776Z,2.70
